Time;durP1;ratioP1;P1;durP2;ratioP2;P2;SDS_P1;SDS_P2;PMS_P1;PMS_P2;Temp;Humidity;BMP_temperature;BMP_pressure;BME280_temperature;BME280_humidity;BME280_pressure;Samples;Min_cycle;Max_cycle;Signal;HPM_P1;HPM_P2
2023/02/05 00:01:30;;;;;;;3.08;1.88;;;10.00;77.70;;;;;;5049849;28;20108;-62
2023/02/05 00:03:56;;;;;;;8.27;3.15;;;10.00;77.70;;;;;;5046833;28;20040;-61
2023/02/05 00:06:22;;;;;;;6.90;3.10;;;10.00;77.70;;;;;;5046879;28;20041;-67
2023/02/05 00:08:48;;;;;;;3.60;2.47;;;10.00;77.80;;;;;;5046411;28;20053;-63
2023/02/05 00:11:14;;;;;;;7.57;3.05;;;9.90;77.80;;;;;;5046649;28;20025;-63
2023/02/05 00:13:41;;;;;;;8.55;3.60;;;9.90;77.80;;;;;;5047131;28;20053;-68
2023/02/05 00:16:13;;;;;;;4.80;2.75;;;9.90;77.80;;;;;;5040017;28;20025;-69
2023/02/05 00:18:39;;;;;;;5.25;3.10;;;9.90;77.90;;;;;;5049206;28;20071;-68
2023/02/05 00:21:06;;;;;;;5.05;2.90;;;9.90;77.90;;;;;;5054595;28;20052;-68
2023/02/05 00:23:33;;;;;;;11.57;2.75;;;9.90;78.00;;;;;;5050649;28;20048;-66
2023/02/05 00:25:58;;;;;;;9.90;3.30;;;9.90;78.00;;;;;;5047446;28;20060;-68
2023/02/05 00:28:24;;;;;;;8.88;3.75;;;9.90;78.10;;;;;;5047648;28;20056;-66
2023/02/05 00:30:50;;;;;;;8.38;3.25;;;9.90;78.20;;;;;;5045770;28;20025;-66
2023/02/05 00:33:15;;;;;;;8.27;2.75;;;9.90;78.20;;;;;;5074427;28;20034;-67
2023/02/05 00:35:42;;;;;;;6.53;3.25;;;9.90;78.20;;;;;;5049393;28;20025;-65
2023/02/05 00:38:08;;;;;;;8.57;3.60;;;9.90;78.30;;;;;;5045883;28;20037;-61
2023/02/05 00:40:33;;;;;;;7.10;3.17;;;9.90;78.30;;;;;;5045786;28;20031;-62
2023/02/05 00:42:59;;;;;;;9.50;4.22;;;10.00;78.30;;;;;;5048646;28;20096;-62
2023/02/05 00:45:25;;;;;;;9.95;4.10;;;10.00;78.40;;;;;;5048794;28;20033;-67
2023/02/05 00:47:50;;;;;;;11.40;4.72;;;10.00;78.50;;;;;;5053798;28;20448;-68
2023/02/05 00:50:16;;;;;;;9.07;4.32;;;10.00;78.50;;;;;;5075644;28;20021;-67
2023/02/05 00:52:42;;;;;;;8.70;3.35;;;10.00;79.30;;;;;;5044392;28;20029;-68
2023/02/05 00:55:07;;;;;;;6.43;3.10;;;10.00;78.70;;;;;;5051554;28;20045;-63
2023/02/05 00:57:33;;;;;;;4.88;3.25;;;10.00;78.80;;;;;;5051463;28;20029;-68
2023/02/05 00:59:59;;;;;;;12.27;4.28;;;10.10;78.90;;;;;;5047376;28;20391;-67
2023/02/05 01:02:24;;;;;;;7.13;3.83;;;10.00;78.80;;;;;;5045591;28;20496;-67
2023/02/05 01:04:51;;;;;;;9.27;4.97;;;10.00;78.90;;;;;;5047508;28;20082;-70
2023/02/05 01:07:18;;;;;;;7.25;4.10;;;10.10;79.00;;;;;;5039375;28;20036;-68
2023/02/05 01:09:44;;;;;;;9.93;3.85;;;10.10;78.90;;;;;;5051106;28;20031;-68
2023/02/05 01:12:10;;;;;;;10.50;4.72;;;10.10;79.10;;;;;;5052366;28;20049;-68
2023/02/05 01:14:35;;;;;;;8.38;5.10;;;10.10;79.10;;;;;;5042646;28;20040;-68
2023/02/05 01:17:01;;;;;;;15.65;6.40;;;10.00;79.30;;;;;;5048644;28;20400;-68
2023/02/05 01:19:27;;;;;;;13.90;5.88;;;10.00;79.40;;;;;;5051699;28;20033;-68
2023/02/05 01:21:52;;;;;;;12.70;5.65;;;10.10;79.90;;;;;;5050260;28;20041;-68
2023/02/05 01:24:18;;;;;;;14.30;5.85;;;10.00;80.00;;;;;;5046923;28;20040;-69
2023/02/05 01:26:44;;;;;;;11.13;5.60;;;10.00;80.20;;;;;;5041918;28;20103;-68
2023/02/05 01:29:10;;;;;;;14.88;6.82;;;10.00;80.20;;;;;;5044510;28;20113;-67
2023/02/05 01:31:35;;;;;;;12.50;6.85;;;10.00;80.20;;;;;;5042304;28;20438;-69
2023/02/05 01:34:01;;;;;;;17.30;7.18;;;10.00;80.30;;;;;;5035519;28;20393;-68
2023/02/05 01:36:27;;;;;;;14.32;7.72;;;10.00;80.30;;;;;;5047598;28;20097;-69
2023/02/05 01:38:53;;;;;;;17.10;7.68;;;10.00;80.90;;;;;;5048840;28;20025;-68
2023/02/05 01:41:19;;;;;;;14.75;7.43;;;10.00;81.10;;;;;;5050091;28;20033;-69
2023/02/05 01:44:08;;;;;;;18.10;7.05;;;10.00;81.10;;;;;;5034030;28;20489;-68
2023/02/05 01:46:36;;;;;;;18.80;8.27;;;10.10;80.90;;;;;;5035188;28;20024;-62
2023/02/05 01:49:03;;;;;;;13.82;6.93;;;10.00;80.90;;;;;;5042392;28;20116;-63
2023/02/05 01:51:30;;;;;;;14.88;7.60;;;10.00;80.90;;;;;;5030492;28;20145;-61
2023/02/05 01:53:56;;;;;;;12.77;6.72;;;10.10;81.10;;;;;;5044428;28;20029;-60
2023/02/05 01:56:34;;;;;;;10.52;5.82;;;10.10;81.00;;;;;;5043788;28;20610;-61
2023/02/05 01:59:07;;;;;;;8.23;5.95;;;10.10;80.90;;;;;;5049063;28;20036;-61
2023/02/05 02:01:34;;;;;;;10.80;6.53;;;10.10;81.40;;;;;;5042018;28;20029;-68
2023/02/05 02:04:03;;;;;;;14.10;6.72;;;10.10;80.80;;;;;;5046778;28;20163;-66
2023/02/05 02:06:30;;;;;;;12.90;6.30;;;10.20;81.00;;;;;;5044572;28;20029;-61
2023/02/05 02:08:56;;;;;;;8.70;6.07;;;10.20;80.80;;;;;;5043509;28;20126;-61
2023/02/05 02:11:24;;;;;;;12.75;6.18;;;10.20;80.80;;;;;;5047664;28;20067;-62
2023/02/05 02:13:53;;;;;;;8.93;5.38;;;10.20;80.70;;;;;;5048911;28;20053;-61
2023/02/05 02:16:19;;;;;;;10.27;6.50;;;10.20;80.80;;;;;;5048318;28;20132;-66
2023/02/05 02:18:46;;;;;;;8.60;6.78;;;10.20;80.90;;;;;;5045048;28;20025;-69
2023/02/05 02:21:30;;;;;;;11.63;5.80;;;10.30;80.90;;;;;;5041704;28;20061;-68
2023/02/05 02:24:07;;;;;;;12.80;7.47;;;10.30;80.80;;;;;;5043044;28;20495;-63
2023/02/05 02:27:04;;;;;;;13.13;6.28;;;10.30;81.10;;;;;;5035320;28;20029;-68
2023/02/05 02:29:38;;;;;;;11.48;6.47;;;10.30;81.00;;;;;;5038854;28;20032;-68
2023/02/05 02:32:22;;;;;;;11.80;6.32;;;10.20;81.20;;;;;;5051064;28;20021;-63
2023/02/05 02:34:54;;;;;;;21.23;7.35;;;10.20;81.40;;;;;;5047997;28;20021;-62
2023/02/05 02:37:33;;;;;;;16.35;7.60;;;10.10;81.50;;;;;;5041473;28;20520;-67
2023/02/05 02:40:22;;;;;;;12.70;7.40;;;10.10;81.80;;;;;;5051550;28;20091;-67
2023/02/05 02:42:56;;;;;;;10.75;7.50;;;10.10;82.00;;;;;;5050783;28;20096;-65
2023/02/05 02:45:24;;;;;;;10.27;6.97;;;10.10;82.20;;;;;;5049369;28;20033;-65
2023/02/05 02:47:56;;;;;;;14.85;7.60;;;10.00;82.20;;;;;;5067901;28;20041;-65
2023/02/05 02:50:23;;;;;;;;;;;10.00;82.10;;;;;;5049605;28;20028;-66
2023/02/05 02:52:51;;;;;;;9.32;5.97;;;10.00;82.20;;;;;;5043199;28;19912;-62
2023/02/05 02:55:20;;;;;;;8.55;6.43;;;10.00;82.20;;;;;;5044363;28;20067;-62
2023/02/05 02:57:47;;;;;;;12.63;6.25;;;10.10;82.10;;;;;;5045994;28;20025;-61
2023/02/05 03:00:19;;;;;;;12.23;6.75;;;10.10;82.00;;;;;;5038414;28;20476;-65
2023/02/05 03:02:46;;;;;;;12.53;7.50;;;10.10;82.10;;;;;;5048145;28;20075;-66
2023/02/05 03:05:17;;;;;;;11.02;6.75;;;10.00;82.30;;;;;;5049835;28;20475;-66
2023/02/05 03:07:57;;;;;;;13.48;7.07;;;10.00;82.30;;;;;;5048243;28;20498;-66
2023/02/05 03:10:45;;;;;;;14.18;7.28;;;10.00;82.30;;;;;;5048037;28;20036;-62
2023/02/05 03:13:12;;;;;;;11.88;6.82;;;10.00;82.30;;;;;;5048224;28;20048;-67
2023/02/05 03:15:41;;;;;;;12.15;6.97;;;10.00;83.20;;;;;;5052287;28;20041;-61
2023/02/05 03:18:07;;;;;;;13.57;7.35;;;10.00;82.60;;;;;;5049516;28;20028;-62
2023/02/05 03:20:40;;;;;;;8.52;5.05;;;10.00;82.50;;;;;;5037453;28;20042;-62
2023/02/05 03:23:05;;;;;;;13.63;7.65;;;10.00;83.10;;;;;;5037175;28;20032;-67
2023/02/05 03:25:31;;;;;;;9.68;6.38;;;10.10;82.40;;;;;;5043637;28;20404;-66
2023/02/05 03:27:58;;;;;;;12.52;7.05;;;10.10;82.30;;;;;;5041400;28;20469;-65
2023/02/05 03:30:29;;;;;;;9.13;5.53;;;10.00;82.20;;;;;;5056751;28;20115;-66
2023/02/05 03:33:04;;;;;;;9.30;6.15;;;10.00;82.20;;;;;;5050098;28;20021;-67
2023/02/05 03:36:01;;;;;;;12.07;6.55;;;10.10;82.30;;;;;;5044553;28;20116;-66
2023/02/05 03:38:48;;;;;;;10.35;6.28;;;10.00;82.40;;;;;;5040470;28;20029;-67
2023/02/05 03:44:28;;;;;;;11.35;7.05;;;10.00;82.30;;;;;;5041703;28;20086;-63
2023/02/05 03:47:02;;;;;;;9.07;5.35;;;10.00;82.60;;;;;;5052604;28;20036;-62
2023/02/05 03:50:01;;;;;;;9.57;6.25;;;10.00;82.60;;;;;;5042457;28;20056;-62
2023/02/05 03:52:34;;;;;;;7.47;4.63;;;10.00;82.60;;;;;;5040620;28;20040;-62
2023/02/05 03:55:21;;;;;;;10.57;6.35;;;9.90;82.60;;;;;;5045226;28;20761;-62
2023/02/05 03:57:58;;;;;;;10.00;5.53;;;9.90;82.60;;;;;;5046214;28;20480;-66
2023/02/05 04:00:25;;;;;;;12.25;5.70;;;9.90;82.70;;;;;;5046800;28;20017;-66
2023/02/05 04:02:50;;;;;;;14.48;7.13;;;9.90;82.60;;;;;;5039461;28;20025;-67
2023/02/05 04:05:16;;;;;;;10.13;5.13;;;9.90;82.60;;;;;;5051785;28;20033;-63
2023/02/05 04:07:42;;;;;;;7.68;4.43;;;9.90;82.50;;;;;;5047444;28;20035;-63
2023/02/05 04:10:08;;;;;;;10.70;5.35;;;9.90;82.50;;;;;;5042080;28;20088;-65
2023/02/05 04:12:33;;;;;;;8.50;4.88;;;9.90;82.40;;;;;;5042958;28;20377;-67
2023/02/05 04:14:59;;;;;;;7.70;5.05;;;9.90;82.40;;;;;;5053401;28;20032;-67
2023/02/05 04:17:25;;;;;;;9.80;5.00;;;9.80;82.40;;;;;;5041848;28;20460;-66
2023/02/05 04:19:50;;;;;;;8.15;4.93;;;9.80;82.50;;;;;;5055593;28;20553;-62
2023/02/05 04:22:16;;;;;;;8.90;4.97;;;9.90;82.40;;;;;;5038153;28;20383;-67
2023/02/05 04:24:42;;;;;;;7.05;4.15;;;9.90;82.30;;;;;;5047669;28;20064;-67
2023/02/05 04:27:07;;;;;;;8.43;5.22;;;9.80;82.30;;;;;;5047687;28;20029;-62
2023/02/05 04:29:33;;;;;;;11.68;5.38;;;9.80;82.30;;;;;;5047466;28;20024;-63
2023/02/05 04:31:58;;;;;;;8.85;4.55;;;9.90;82.30;;;;;;5075729;28;20060;-67
2023/02/05 04:34:24;;;;;;;8.52;5.20;;;9.80;82.20;;;;;;5075711;28;20044;-67
2023/02/05 04:36:50;;;;;;;10.35;5.60;;;9.80;82.20;;;;;;5046283;28;20025;-67
2023/02/05 04:39:15;;;;;;;7.80;5.57;;;9.80;82.20;;;;;;5043188;28;20037;-63
2023/02/05 04:41:41;;;;;;;12.38;4.55;;;9.80;82.20;;;;;;5042069;28;20029;-68
2023/02/05 04:44:07;;;;;;;8.80;3.78;;;9.80;82.20;;;;;;5043424;28;20377;-67
2023/02/05 04:46:32;;;;;;;8.05;3.97;;;9.80;82.20;;;;;;5043900;28;20036;-67
2023/02/05 04:48:59;;;;;;;9.75;4.70;;;9.80;82.30;;;;;;5040822;28;20562;-62
2023/02/05 04:51:25;;;;;;;7.70;5.13;;;9.80;82.30;;;;;;5041982;28;20036;-61
2023/02/05 04:53:51;;;;;;;9.55;4.93;;;9.80;82.30;;;;;;5048928;28;20036;-66
2023/02/05 04:56:17;;;;;;;9.63;4.43;;;9.80;82.30;;;;;;5044259;28;20099;-67
2023/02/05 04:58:43;;;;;;;4.80;4.18;;;9.80;82.30;;;;;;5043235;28;20472;-66
2023/02/05 05:01:14;;;;;;;7.57;4.38;;;9.80;82.10;;;;;;5050588;28;20470;-67
2023/02/05 05:03:40;;;;;;;6.90;4.28;;;9.80;82.10;;;;;;5047929;28;20029;-66
2023/02/05 05:06:06;;;;;;;8.93;4.72;;;9.70;82.20;;;;;;5050939;28;20048;-66
2023/02/05 05:08:32;;;;;;;9.38;4.63;;;9.70;82.50;;;;;;5044309;28;20502;-67
2023/02/05 05:10:59;;;;;;;7.65;4.43;;;9.60;82.50;;;;;;5048941;28;20024;-67
2023/02/05 05:13:25;;;;;;;8.50;4.93;;;9.60;82.60;;;;;;5048283;28;20082;-66
2023/02/05 05:15:55;;;;;;;8.45;3.83;;;9.60;82.60;;;;;;5049303;28;20025;-67
2023/02/05 05:18:20;;;;;;;6.35;4.20;;;9.60;82.70;;;;;;5044010;28;20485;-62
2023/02/05 05:20:46;;;;;;;7.28;4.30;;;9.70;82.70;;;;;;5044386;28;20051;-62
2023/02/05 05:23:12;;;;;;;10.95;5.80;;;9.70;82.50;;;;;;5061461;28;20021;-62
2023/02/05 05:25:45;;;;;;;8.30;4.38;;;9.60;82.70;;;;;;5047007;28;20025;-62
2023/02/05 05:28:12;;;;;;;9.38;5.32;;;9.60;82.70;;;;;;5043003;28;20030;-62
2023/02/05 05:30:39;;;;;;;8.93;5.10;;;9.60;82.80;;;;;;5048529;28;20129;-62
2023/02/05 05:33:05;;;;;;;9.40;4.80;;;9.60;82.90;;;;;;5053531;28;20036;-63
2023/02/05 05:35:30;;;;;;;7.50;4.60;;;9.60;83.00;;;;;;5045478;28;20032;-62
2023/02/05 05:37:57;;;;;;;4.78;3.92;;;9.50;83.10;;;;;;5043332;28;20025;-62
2023/02/05 05:46:03;;;;;;;9.27;4.75;;;9.50;83.30;;;;;;5046892;28;20055;-62
2023/02/05 05:48:29;;;;;;;8.55;4.90;;;9.40;83.50;;;;;;5046887;28;20026;-63
2023/02/05 05:50:54;;;;;;;10.13;4.78;;;9.40;83.70;;;;;;5045393;28;20096;-63
2023/02/05 05:53:20;;;;;;;6.55;3.95;;;9.40;83.90;;;;;;5046329;28;20426;-63
2023/02/05 05:55:46;;;;;;;7.85;4.80;;;9.40;84.20;;;;;;5043420;28;20025;-63
2023/02/05 05:58:12;;;;;;;5.28;3.70;;;9.30;84.40;;;;;;5038320;28;20041;-66
2023/02/05 06:00:39;;;;;;;6.85;3.83;;;9.30;84.50;;;;;;5044906;28;20024;-66
2023/02/05 06:03:05;;;;;;;6.10;3.95;;;9.30;84.50;;;;;;5041030;28;20028;-63
2023/02/05 06:05:31;;;;;;;3.22;2.58;;;9.30;84.60;;;;;;5044131;28;20035;-62
2023/02/05 06:07:57;;;;;;;5.18;2.92;;;9.30;84.60;;;;;;5042933;28;20030;-63
2023/02/05 06:10:23;;;;;;;3.17;2.28;;;9.30;84.50;;;;;;5047107;28;20019;-62
2023/02/05 06:12:49;;;;;;;3.33;2.35;;;9.40;84.50;;;;;;5050081;28;20063;-69
2023/02/05 06:15:15;;;;;;;4.63;2.70;;;9.40;84.40;;;;;;5045162;28;20037;-73
2023/02/05 06:17:41;;;;;;;2.53;2.03;;;9.40;84.20;;;;;;5054326;28;20025;-71
2023/02/05 06:20:08;;;;;;;4.85;2.08;;;9.40;84.10;;;;;;5047598;28;20029;-72
2023/02/05 06:22:34;;;;;;;1.90;1.58;;;9.40;84.10;;;;;;5063579;28;20029;-72
2023/02/05 06:25:01;;;;;;;2.35;1.65;;;9.40;84.20;;;;;;5043296;28;20099;-73
2023/02/05 06:27:27;;;;;;;3.00;1.83;;;9.40;84.20;;;;;;5045309;28;20021;-70
2023/02/05 06:29:52;;;;;;;1.50;1.30;;;9.40;84.20;;;;;;5048591;28;20078;-62
2023/02/05 06:32:18;;;;;;;1.63;1.05;;;9.40;84.30;;;;;;5033830;28;20675;-72
2023/02/05 06:34:44;;;;;;;2.13;1.10;;;9.30;84.20;;;;;;5044857;28;20032;-73
2023/02/05 06:37:09;;;;;;;1.00;0.90;;;9.30;84.00;;;;;;5046214;28;20033;-72
2023/02/05 06:39:36;;;;;;;3.30;0.50;;;9.20;83.60;;;;;;5036024;28;20030;-73
2023/02/05 06:42:02;;;;;;;3.67;1.25;;;9.10;83.40;;;;;;5047008;28;20035;-64
2023/02/05 06:44:27;;;;;;;1.90;1.10;;;9.00;83.20;;;;;;5065275;28;20037;-72
2023/02/05 06:46:53;;;;;;;6.07;0.90;;;8.90;82.90;;;;;;5049830;28;20032;-72
2023/02/05 06:49:19;;;;;;;3.95;0.68;;;8.80;83.20;;;;;;5047298;28;20108;-66
2023/02/05 06:51:44;;;;;;;2.30;0.60;;;8.80;83.40;;;;;;5044080;28;20025;-63
2023/02/05 06:54:10;;;;;;;1.10;0.47;;;8.80;83.30;;;;;;5041971;28;20568;-61
2023/02/05 06:56:36;;;;;;;2.58;0.52;;;8.70;83.40;;;;;;5045233;28;20111;-67
2023/02/05 06:59:01;;;;;;;0.60;0.50;;;8.70;83.20;;;;;;5041902;28;20035;-61
2023/02/05 07:01:27;;;;;;;2.75;0.98;;;8.60;83.20;;;;;;5043919;28;20492;-61
2023/02/05 07:03:54;;;;;;;2.17;0.90;;;8.60;83.20;;;;;;5042993;28;20522;-67
2023/02/05 07:06:22;;;;;;;0.88;0.55;;;8.60;83.30;;;;;;5039950;28;20529;-61
2023/02/05 07:08:49;;;;;;;4.18;0.85;;;8.60;83.20;;;;;;5043387;28;20018;-60
2023/02/05 07:11:15;;;;;;;4.40;0.75;;;8.60;83.20;;;;;;5042846;28;20339;-61
2023/02/05 07:13:40;;;;;;;4.45;0.80;;;8.60;83.10;;;;;;5049080;28;20087;-61
2023/02/05 07:16:06;;;;;;;0.85;0.40;;;8.60;83.10;;;;;;5041347;28;20025;-61
2023/02/05 07:18:33;;;;;;;5.15;0.73;;;8.60;83.10;;;;;;5051913;28;20025;-61
2023/02/05 07:21:02;;;;;;;0.77;0.70;;;8.60;83.10;;;;;;5052183;28;20054;-66
2023/02/05 07:23:28;;;;;;;1.55;0.60;;;8.60;83.20;;;;;;5048951;28;20048;-67
2023/02/05 07:25:54;;;;;;;2.63;0.55;;;8.60;83.10;;;;;;5046745;28;20044;-67
2023/02/05 07:28:19;;;;;;;0.90;0.68;;;8.50;83.10;;;;;;5050734;28;20463;-66
2023/02/05 07:30:46;;;;;;;2.67;0.75;;;8.50;83.10;;;;;;5062589;28;20556;-67
2023/02/05 07:33:12;;;;;;;2.35;0.60;;;8.60;83.10;;;;;;5046182;28;20436;-66
2023/02/05 07:35:38;;;;;;;0.50;0.50;;;8.50;82.90;;;;;;5052354;28;20441;-67
2023/02/05 07:38:04;;;;;;;2.83;1.02;;;8.50;83.00;;;;;;5051482;28;20066;-64
2023/02/05 07:40:30;;;;;;;2.03;0.90;;;8.50;83.00;;;;;;5049345;28;20103;-60
2023/02/05 07:42:56;;;;;;;3.63;1.13;;;8.60;83.10;;;;;;5048609;28;20033;-61
2023/02/05 07:45:22;;;;;;;15.13;1.10;;;8.50;83.00;;;;;;5047804;28;20041;-59
2023/02/05 07:47:52;;;;;;;2.30;1.13;;;8.60;82.90;;;;;;5065409;28;21326;-60
2023/02/05 07:50:18;;;;;;;2.20;0.90;;;8.60;82.80;;;;;;5046072;28;20424;-60
2023/02/05 07:52:44;;;;;;;2.70;0.80;;;8.50;82.70;;;;;;5046841;28;20018;-60
2023/02/05 07:55:09;;;;;;;7.18;0.82;;;8.60;82.80;;;;;;5048634;28;20079;-61
2023/02/05 07:57:35;;;;;;;0.60;0.60;;;8.60;82.70;;;;;;5062469;28;20029;-60
2023/02/05 08:00:00;;;;;;;3.38;1.23;;;8.60;82.60;;;;;;5066427;28;20497;-60
2023/02/05 08:02:26;;;;;;;0.68;0.68;;;8.60;82.60;;;;;;5041429;28;20029;-61
2023/02/05 08:04:52;;;;;;;0.60;0.50;;;8.60;82.60;;;;;;5046018;28;20159;-67
2023/02/05 08:07:17;;;;;;;1.92;0.80;;;8.60;82.70;;;;;;5047153;28;20078;-65
2023/02/05 08:09:43;;;;;;;2.75;0.77;;;8.60;82.70;;;;;;5043039;28;20119;-61
2023/02/05 08:12:09;;;;;;;1.80;0.85;;;8.60;82.80;;;;;;5046804;28;20489;-60
2023/02/05 08:14:35;;;;;;;2.28;0.82;;;8.60;83.00;;;;;;5049704;28;20443;-61
2023/02/05 08:17:01;;;;;;;4.95;1.10;;;8.60;83.10;;;;;;5046291;28;20112;-61
2023/02/05 08:19:26;;;;;;;1.80;1.08;;;8.60;83.30;;;;;;5049303;28;20032;-66
2023/02/05 08:21:52;;;;;;;4.35;1.25;;;8.60;83.30;;;;;;5039843;28;20048;-61
2023/02/05 08:24:18;;;;;;;2.53;1.25;;;8.60;83.40;;;;;;5037337;28;20041;-62
2023/02/05 08:26:44;;;;;;;2.53;0.70;;;8.60;83.40;;;;;;5048216;28;20083;-63
2023/02/05 08:29:10;;;;;;;2.72;1.13;;;8.60;83.20;;;;;;5049887;28;20092;-70
2023/02/05 08:31:36;;;;;;;3.97;0.98;;;8.60;83.40;;;;;;5041600;28;20131;-70
2023/02/05 08:34:03;;;;;;;2.63;1.13;;;8.60;83.60;;;;;;5040848;28;20029;-68
2023/02/05 08:36:29;;;;;;;2.92;0.80;;;8.60;83.70;;;;;;5042314;28;20519;-67
2023/02/05 08:38:55;;;;;;;3.47;1.20;;;8.60;83.70;;;;;;5043697;28;20472;-66
2023/02/05 08:41:20;;;;;;;3.70;1.50;;;8.50;83.80;;;;;;5048403;28;20091;-63
2023/02/05 08:43:48;;;;;;;8.02;2.28;;;8.50;83.90;;;;;;5046724;28;20098;-63
2023/02/05 08:46:18;;;;;;;3.30;1.08;;;8.50;84.00;;;;;;5059514;28;20029;-63
2023/02/05 08:48:45;;;;;;;2.60;1.15;;;8.60;83.90;;;;;;5046965;28;20123;-63
2023/02/05 08:51:12;;;;;;;5.20;1.20;;;8.50;84.00;;;;;;5043599;28;20037;-67
2023/02/05 08:53:39;;;;;;;8.15;1.50;;;8.50;84.00;;;;;;5038087;28;20025;-67
2023/02/05 08:56:05;;;;;;;1.85;1.05;;;8.60;84.00;;;;;;5034265;28;20018;-68
2023/02/05 08:58:31;;;;;;;5.75;1.30;;;8.60;84.00;;;;;;5039391;28;20037;-67
2023/02/05 09:01:10;;;;;;;7.75;1.15;;;8.60;83.80;;;;;;5031022;28;20029;-67
2023/02/05 09:03:36;;;;;;;3.17;1.02;;;8.70;83.80;;;;;;5033605;28;20520;-67
2023/02/05 09:06:06;;;;;;;7.25;1.70;;;8.80;83.70;;;;;;5041027;28;20082;-67
2023/02/05 09:08:33;;;;;;;6.00;1.17;;;8.80;83.60;;;;;;5051757;28;20424;-67
2023/02/05 09:10:58;;;;;;;2.15;1.02;;;8.80;83.50;;;;;;5048266;28;20475;-64
2023/02/05 09:13:24;;;;;;;16.45;1.70;;;8.90;84.00;;;;;;5047129;28;20094;-63
2023/02/05 09:15:50;;;;;;;7.05;1.42;;;8.90;83.10;;;;;;5036025;28;20029;-63
2023/02/05 09:18:16;;;;;;;7.43;2.03;;;8.90;83.10;;;;;;5029965;28;20033;-67
2023/02/05 09:20:48;;;;;;;3.95;0.60;;;9.00;83.20;;;;;;5031036;28;20068;-67
2023/02/05 09:23:15;;;;;;;11.95;2.97;;;9.00;83.20;;;;;;5034950;28;20472;-66
2023/02/05 09:25:42;;;;;;;6.50;1.70;;;9.10;83.00;;;;;;5026615;28;20496;-63
2023/02/05 09:28:10;;;;;;;10.85;1.65;;;9.10;82.70;;;;;;5041226;28;20032;-67
2023/02/05 09:30:37;;;;;;;4.53;1.73;;;9.20;82.70;;;;;;5074004;28;20083;-63
2023/02/05 09:33:02;;;;;;;2.67;1.08;;;9.20;82.50;;;;;;5037594;28;20052;-63
2023/02/05 09:35:30;;;;;;;7.57;2.15;;;9.20;82.40;;;;;;5037659;28;20103;-63
2023/02/05 09:37:56;;;;;;;11.18;1.60;;;9.20;82.30;;;;;;5040349;28;20364;-63
2023/02/05 09:40:29;;;;;;;8.60;3.00;;;9.20;82.20;;;;;;5037913;28;20032;-67
2023/02/05 09:43:33;;;;;;;10.65;1.75;;;9.30;81.90;;;;;;5043370;28;20481;-63
2023/02/05 09:46:05;;;;;;;6.35;2.38;;;9.20;81.80;;;;;;5042836;28;20499;-63
2023/02/05 09:48:48;;;;;;;5.47;1.77;;;9.20;81.80;;;;;;5032645;28;20037;-63
2023/02/05 09:51:17;;;;;;;11.18;2.40;;;9.10;81.90;;;;;;5043364;28;20029;-64
2023/02/05 09:53:47;;;;;;;6.32;2.33;;;9.10;82.00;;;;;;5044684;28;20024;-64
2023/02/05 09:56:15;;;;;;;11.02;2.08;;;9.10;82.00;;;;;;5048707;28;20503;-64
2023/02/05 09:58:46;;;;;;;3.13;1.90;;;9.10;81.90;;;;;;5046959;28;20028;-64
2023/02/05 10:01:23;;;;;;;6.13;2.05;;;9.10;81.70;;;;;;5044706;28;20036;-64
2023/02/05 10:03:55;;;;;;;8.82;2.67;;;9.10;81.50;;;;;;5039318;28;20429;-64
2023/02/05 10:06:21;;;;;;;;;;;9.20;81.40;;;;;;5045547;28;20040;-68
2023/02/05 10:09:08;;;;;;;6.97;2.50;;;9.20;81.00;;;;;;5042627;28;19909;-68
2023/02/05 10:11:42;;;;;;;5.53;2.22;;;9.20;80.90;;;;;;5044482;28;20021;-64
2023/02/05 10:14:16;;;;;;;5.35;2.45;;;9.20;80.90;;;;;;5038597;28;20069;-64
2023/02/05 10:16:56;;;;;;;5.55;1.63;;;9.20;80.40;;;;;;5039772;28;20092;-63
2023/02/05 10:19:47;;;;;;;6.72;1.73;;;9.30;80.50;;;;;;5044054;28;20036;-63
2023/02/05 10:22:26;;;;;;;12.40;2.20;;;9.40;79.70;;;;;;5045784;28;20083;-68
2023/02/05 10:25:12;;;;;;;7.50;2.90;;;9.50;79.40;;;;;;5032694;28;20036;-67
2023/02/05 10:28:01;;;;;;;5.82;1.98;;;9.70;79.40;;;;;;5040868;28;20037;-68
2023/02/05 10:30:44;;;;;;;5.40;1.63;;;9.80;78.40;;;;;;5046910;28;20029;-67
2023/02/05 10:33:33;;;;;;;7.20;2.50;;;9.90;77.90;;;;;;5049711;28;20464;-64
2023/02/05 10:36:01;;;;;;;3.22;1.33;;;10.10;77.40;;;;;;5044789;28;20028;-65
2023/02/05 10:38:32;;;;;;;11.70;2.38;;;10.20;77.00;;;;;;5040530;28;20033;-66
2023/02/05 10:41:11;;;;;;;5.88;1.55;;;10.20;76.00;;;;;;5047575;28;20082;-64
2023/02/05 10:43:47;;;;;;;6.05;2.45;;;10.20;75.80;;;;;;5045561;28;20104;-65
2023/02/05 10:46:14;;;;;;;7.50;2.13;;;10.10;75.90;;;;;;5033215;28;20064;-62
2023/02/05 10:49:00;;;;;;;7.00;1.90;;;10.00;76.10;;;;;;5044973;28;20024;-64
2023/02/05 10:51:38;;;;;;;9.43;2.45;;;9.90;76.10;;;;;;5047967;28;20135;-63
2023/02/05 10:54:05;;;;;;;7.82;2.47;;;9.90;76.30;;;;;;5052251;28;20033;-63
2023/02/05 10:56:31;;;;;;;10.30;2.50;;;9.70;75.90;;;;;;5046711;28;20017;-63
2023/02/05 10:59:01;;;;;;;4.93;1.63;;;9.70;76.30;;;;;;5045159;28;20457;-70
2023/02/05 11:01:35;;;;;;;11.60;2.38;;;9.70;76.40;;;;;;5044626;28;20551;-62
2023/02/05 11:04:15;;;;;;;8.38;2.00;;;9.70;76.40;;;;;;5048477;28;20021;-62
2023/02/05 11:06:48;;;;;;;8.93;2.38;;;9.70;76.60;;;;;;5050986;28;20063;-60
2023/02/05 11:09:23;;;;;;;9.27;1.70;;;9.70;76.80;;;;;;5050232;28;20473;-59
2023/02/05 11:11:56;;;;;;;5.97;2.22;;;9.80;76.60;;;;;;5039889;28;20235;-59
2023/02/05 11:14:35;;;;;;;5.68;2.25;;;9.80;76.40;;;;;;5041782;28;20443;-59
2023/02/05 11:17:28;;;;;;;5.65;2.72;;;9.90;76.00;;;;;;5050030;28;20063;-61
2023/02/05 11:20:20;;;;;;;3.85;1.90;;;10.10;75.90;;;;;;5041431;28;20094;-60
2023/02/05 11:22:46;;;;;;;3.40;1.83;;;10.70;75.00;;;;;;5042331;28;20025;-61
2023/02/05 11:25:20;;;;;;;5.30;2.20;;;11.20;73.40;;;;;;5046550;28;20431;-61
2023/02/05 11:27:52;;;;;;;3.60;1.80;;;11.40;71.70;;;;;;5043740;28;20032;-61
2023/02/05 11:30:31;;;;;;;4.60;2.15;;;11.40;70.70;;;;;;5048357;28;20017;-60
2023/02/05 11:32:58;;;;;;;7.25;1.77;;;11.60;71.80;;;;;;5041182;28;20033;-60
2023/02/05 11:35:31;;;;;;;7.60;2.63;;;11.50;71.00;;;;;;5045581;28;20033;-60
2023/02/05 11:38:06;;;;;;;6.85;1.98;;;11.40;71.10;;;;;;5044514;28;20029;-61
2023/02/05 11:40:32;;;;;;;6.68;2.35;;;11.40;71.70;;;;;;5045847;28;20033;-61
2023/02/05 11:43:04;;;;;;;4.00;1.70;;;11.20;71.50;;;;;;5045641;28;20427;-61
2023/02/05 11:45:31;;;;;;;9.40;2.45;;;11.00;72.00;;;;;;5045303;28;20091;-61
2023/02/05 11:48:00;;;;;;;7.80;1.85;;;10.80;72.80;;;;;;5042176;28;20044;-61
2023/02/05 11:50:28;;;;;;;12.07;2.30;;;10.80;73.20;;;;;;5050267;28;20414;-61
2023/02/05 11:53:04;;;;;;;6.32;1.30;;;10.70;72.70;;;;;;5051520;28;20060;-61
2023/02/05 11:55:34;;;;;;;6.93;1.92;;;10.70;72.90;;;;;;5045965;28;20383;-61
2023/02/05 11:58:03;;;;;;;10.25;2.80;;;10.60;73.00;;;;;;5047665;28;20097;-61
2023/02/05 12:00:29;;;;;;;10.90;2.40;;;10.60;73.00;;;;;;5044339;28;20056;-61
2023/02/05 12:03:03;;;;;;;6.18;1.88;;;10.60;73.00;;;;;;5045858;28;20072;-61
2023/02/05 12:05:34;;;;;;;11.27;2.22;;;10.60;72.70;;;;;;5045242;28;20059;-61
2023/02/05 12:08:18;;;;;;;3.97;1.48;;;10.50;72.40;;;;;;5060675;28;20049;-61
2023/02/05 12:11:25;;;;;;;10.55;3.05;;;10.50;72.90;;;;;;5044954;28;20025;-61
2023/02/05 12:14:12;;;;;;;10.57;1.88;;;10.40;73.20;;;;;;5039189;28;20037;-61
2023/02/05 12:17:12;;;;;;;4.53;1.90;;;10.30;73.40;;;;;;5048015;28;20017;-61
2023/02/05 12:19:55;;;;;;;11.93;2.55;;;10.20;73.70;;;;;;5054642;28;20519;-61
2023/02/05 12:22:45;;;;;;;5.63;1.55;;;10.20;74.10;;;;;;5051005;28;20079;-61
2023/02/05 12:25:43;;;;;;;10.93;2.13;;;10.50;74.30;;;;;;5043747;28;20041;-61
2023/02/05 12:28:27;;;;;;;11.15;2.35;;;12.20;71.20;;;;;;5048830;28;20452;-61
2023/02/05 12:31:18;;;;;;;7.15;2.25;;;15.00;64.20;;;;;;5050166;28;20017;-59
2023/02/05 12:33:46;;;;;;;5.82;1.67;;;16.50;59.30;;;;;;5042101;28;20049;-59
2023/02/05 12:36:42;;;;;;;1.98;1.42;;;16.40;56.80;;;;;;5046591;28;20475;-58
2023/02/05 12:39:36;;;;;;;7.22;1.50;;;15.50;59.20;;;;;;5047689;28;20435;-59
2023/02/05 12:42:08;;;;;;;1.85;1.05;;;14.60;60.50;;;;;;5042819;28;20028;-59
2023/02/05 12:44:51;;;;;;;7.53;1.38;;;13.80;61.60;;;;;;5050730;28;20043;-59
2023/02/05 12:47:38;;;;;;;2.83;1.00;;;13.10;63.80;;;;;;5046008;28;20025;-60
2023/02/05 12:50:34;;;;;;;5.90;1.20;;;12.60;65.60;;;;;;5043695;28;20021;-59
2023/02/05 12:53:37;;;;;;;3.15;1.23;;;12.10;67.70;;;;;;5046247;28;20465;-61
2023/02/05 12:56:23;;;;;;;7.22;1.95;;;11.70;68.40;;;;;;5045645;28;20121;-59
2023/02/05 12:59:18;;;;;;;8.77;2.80;;;11.40;69.70;;;;;;5043099;28;20103;-62
2023/02/05 13:01:51;;;;;;;3.67;1.35;;;11.10;71.00;;;;;;5035936;28;20086;-59
2023/02/05 13:04:25;;;;;;;10.80;2.65;;;11.00;71.60;;;;;;5047952;28;20030;-60
2023/02/05 13:07:11;;;;;;;4.68;1.77;;;11.10;72.10;;;;;;5046518;28;20455;-60
2023/02/05 13:09:51;;;;;;;10.45;2.47;;;11.30;71.60;;;;;;5052077;28;20048;-59
2023/02/05 13:12:22;;;;;;;4.57;1.77;;;11.20;71.00;;;;;;5043380;28;20411;-62
2023/02/05 13:15:03;;;;;;;11.48;2.17;;;11.20;71.60;;;;;;5052661;28;20037;-60
2023/02/05 13:17:33;;;;;;;3.38;1.85;;;11.90;70.30;;;;;;5055297;28;20037;-61